Jackson, MS

10:31 AM CST en Marzo 02, 2015 (GMT -0600)
Brinkly | Change Station
CLOSE
Current Station
Estación meteorológica personal
Location: Jackson, MS
Altura: 344 ft
Estaciones meteorológicas cercanas
Aviso en curso: Flood Warning

Alt 344 ft 32.35 °N, 90.20 °W | Updated 14 minutes ago

Nublado
Nublado
51.8 ° F
Sensación térmica 51.8 ° F
N
0.0
Viento Variable Viento desde Norte

Hoy
Alta -- | Baja -- ° F
--% Posibilidad de precipitaciones
Ayer
Alta -- | Baja -- ° F
Precip. -- pul
6:27 AM 5:58 PM
Gibosa creciente, 92% visible
Presión 30.33 pul
Visibilidad 2.5 Millas
Nubes Nublado 300 ft
Punto de rocío 51 ° F
Humedad 98%
Precipitaciones 0.02 pul
Espesor de la nieve No disponible.
UV 1 de una escala de 12
Polen 3.20 de una escala de 12
Calidad del aire No disponible.
Flu Activity No disponible.
METAR KHKS 021553Z 35003KT 2 1/2SM BR OVC003 09/08 A3034 RMK AO2 SLP269 T00940083

More Conditions Fewer Conditions

Presión 30.33 pul
Visibilidad 2.5 Millas
Nubes Nublado 300 ft
Punto de rocío 51 ° F
Humedad 98%
Precipitaciones 0.02 pul
Espesor de la nieve No disponible.
UV 1 de una escala de 12
Polen 3.20 de una escala de 12
Calidad del aire No disponible.
Flu Activity No disponible.
METAR KHKS 021553Z 35003KT 2 1/2SM BR OVC003 09/08 A3034 RMK AO2 SLP269 T00940083

More Conditions Fewer Conditions

10-Day Weather Forecast

Almanac

Astronomía

Mar. 02, 2015 Salida Puesta
Hora real
Crepúsculo civil
Crepúsculo náutico
Crepúsculo astronómico
Luna
Horas de luz
Horas de luz
Tomorrow will be .
, % of the Moon is Illuminated

Extremos de hoy

Máximos del estado Bajos del estado

Community

WunderPhotos

Upload Photos

1,801,840 ¡fotos cargadas!

WunderBlogs® & News

Nearby

Calidad del aire

  Calidad del aire Índice AQ Contaminante
Not available.

Grosos de nieve

Estación Profundido Altura

Actividad de terremotos

Ciudad Distance Mag. Tiempo y dato
Magnitud mínima muestra es 2,5.

Temperaturas de aguas costeras

Lugar Temperatura

Estaciones meteorológicas cercanas

Flood Warning
Statement as of 8:27 PM CST en Marzo 01, 2015


The Flood Warning continues for the Big Black River near Bovina
* until further notice.
* At 8:15 PM Sunday the stage was 30.3 feet.
* Minor flooding is occurring and minor flooding is forecast.
* Flood stage is 28.0 feet.
* Forecast... the river will continue rising to near 31.5 feet by
early Tuesday morning before slowly falling over the next several
days.
* Impact... at 32.0 feet... several access roads along and near the
river are under water.


              Flood observed forecast 7 am crest
location stg stg day time Mon Tue Wed crest time date

Lower Big Black River
Bovina 28 30.3 sun 08 PM 30.9 31.5 31.4 31.5 12 am 03/03




Lat... Lon 3217 9093 3224 9078 3256 9064 3245 9052
      3218 9065 3204 9102